Time;durP1;ratioP1;P1;durP2;ratioP2;P2;SDS_P1;SDS_P2;PMS_P1;PMS_P2;Temp;Humidity;BMP_temperature;BMP_pressure;BME280_temperature;BME280_humidity;BME280_pressure;Samples;Min_cycle;Max_cycle;Signal;HPM_P1;HPM_P2
2021/03/30 00:01:40;;;;;;;22.02;16.30;;;;;;;14.70;52.41;102039.59;5062941;28;20545;-72
2021/03/30 00:04:07;;;;;;;16.13;14.43;;;;;;;14.63;52.93;102039.84;5042966;28;20052;-72
2021/03/30 00:06:33;;;;;;;19.70;15.90;;;;;;;14.58;52.83;102039.16;5064419;28;20045;-73
2021/03/30 00:09:00;;;;;;;18.50;14.60;;;;;;;14.32;53.46;102044.50;5058482;28;20124;-73
2021/03/30 00:11:26;;;;;;;19.90;15.43;;;;;;;14.39;53.44;102030.25;5060635;28;20037;-72
2021/03/30 00:13:52;;;;;;;16.88;15.07;;;;;;;14.36;53.64;102043.47;5059261;28;20123;-72
2021/03/30 00:16:19;;;;;;;17.10;14.88;;;;;;;14.32;53.72;102039.25;5061365;28;20483;-72
2021/03/30 00:18:46;;;;;;;20.17;14.90;;;;;;;14.39;53.22;102036.34;5057400;28;20068;-72
2021/03/30 00:21:12;;;;;;;18.27;15.32;;;;;;;14.45;52.86;102040.53;5058091;28;20880;-72
2021/03/30 00:23:38;;;;;;;16.15;14.43;;;;;;;14.36;53.73;102031.22;5059776;28;20063;-74
2021/03/30 00:26:05;;;;;;;17.70;14.40;;;;;;;14.38;53.33;102024.16;5062735;28;20487;-74
2021/03/30 00:28:31;;;;;;;20.60;14.02;;;;;;;14.35;53.54;102028.66;5056299;28;20063;-74
2021/03/30 00:30:57;;;;;;;16.80;13.50;;;;;;;14.29;53.63;102024.50;5058852;28;20068;-74
2021/03/30 00:33:24;;;;;;;19.38;13.13;;;;;;;14.30;53.90;102025.34;5062609;28;20090;-73
2021/03/30 00:35:51;;;;;;;19.40;14.32;;;;;;;14.26;53.58;102031.63;5062562;28;20041;-74
2021/03/30 00:38:17;;;;;;;16.15;13.98;;;;;;;14.39;53.25;102025.88;5062183;28;20121;-73
2021/03/30 00:40:44;;;;;;;16.73;13.73;;;;;;;14.33;53.37;102025.25;5065202;28;20119;-74
2021/03/30 00:43:10;;;;;;;15.30;13.38;;;;;;;14.29;53.35;102024.50;5061212;28;20087;-74
2021/03/30 00:45:37;;;;;;;20.60;14.20;;;;;;;14.29;53.45;102019.25;5060046;28;20503;-74
2021/03/30 00:48:05;;;;;;;19.45;13.40;;;;;;;14.20;53.73;102014.34;5061403;28;20487;-74
2021/03/30 00:50:33;;;;;;;18.85;14.13;;;;;;;14.01;54.67;102018.53;5064821;28;20429;-74
2021/03/30 00:53:14;;;;;;;16.70;14.88;;;;;;;14.03;54.21;102012.34;5059467;28;20452;-72
2021/03/30 00:56:13;;;;;;;18.00;14.73;;;;;;;14.06;54.15;102011.34;5046746;28;20387;-72
2021/03/30 00:58:39;;;;;;;20.45;14.85;;;;;;;14.10;54.04;102016.44;5062022;28;20036;-72
2021/03/30 01:01:06;;;;;;;22.17;13.80;;;;;;;13.94;54.57;102023.16;5062844;28;20364;-72
2021/03/30 01:03:32;;;;;;;21.42;13.65;;;;;;;13.96;54.30;102018.72;5063718;28;20044;-72
2021/03/30 01:05:59;;;;;;;18.40;14.65;;;;;;;13.93;54.71;102018.81;5065204;28;20459;-72
2021/03/30 01:08:39;;;;;;;16.42;12.95;;;;;;;13.96;54.55;102016.09;5064914;28;20033;-72
2021/03/30 01:11:33;;;;;;;18.13;15.18;;;;;;;14.04;54.38;102015.81;5065330;28;20111;-72
2021/03/30 01:14:37;;;;;;;17.30;14.15;;;;;;;13.95;54.43;102014.38;5059593;28;20064;-72
2021/03/30 01:17:25;;;;;;;19.40;14.45;;;;;;;13.89;54.80;102010.19;5064169;28;20072;-72
2021/03/30 01:19:54;;;;;;;19.52;13.38;;;;;;;13.98;54.62;102002.94;5060398;28;20036;-72
2021/03/30 01:22:52;;;;;;;17.80;14.25;;;;;;;13.88;55.03;102005.03;5063268;28;20051;-72
2021/03/30 01:25:19;;;;;;;22.48;13.30;;;;;;;13.89;54.77;102004.09;5061333;28;20072;-71
2021/03/30 01:28:00;;;;;;;17.17;13.32;;;;;;;13.90;54.60;102005.81;5062443;28;20044;-71
2021/03/30 01:30:29;;;;;;;21.77;16.77;;;;;;;13.88;54.77;102002.41;5060661;28;20060;-71
2021/03/30 01:33:08;;;;;;;20.25;15.18;;;;;;;13.83;54.87;102004.31;5062508;28;20041;-70
2021/03/30 01:35:36;;;;;;;19.77;14.50;;;;;;;13.93;54.67;102003.09;5063297;28;20498;-73
2021/03/30 01:38:03;;;;;;;21.02;15.35;;;;;;;13.85;54.95;102006.00;5058919;28;20048;-73
2021/03/30 01:40:32;;;;;;;26.60;16.42;;;;;;;13.76;55.71;102001.06;5068890;28;20041;-73
2021/03/30 01:43:00;;;;;;;21.85;15.50;;;;;;;13.66;55.91;102001.44;5070490;28;20052;-73
2021/03/30 01:45:27;;;;;;;26.13;15.80;;;;;;;13.65;55.80;102005.00;5073749;28;20414;-73
2021/03/30 01:47:55;;;;;;;16.83;14.50;;;;;;;13.67;55.77;102009.25;5074206;28;20040;-73
2021/03/30 01:50:22;;;;;;;20.77;16.33;;;;;;;13.76;55.18;102005.47;5073707;28;20058;-73
2021/03/30 01:52:50;;;;;;;24.50;16.65;;;;;;;13.69;55.62;102006.56;5073803;28;20047;-73
2021/03/30 01:55:18;;;;;;;21.35;15.93;;;;;;;13.71;54.94;102000.38;5073572;28;20048;-73
2021/03/30 01:57:47;;;;;;;56.08;18.48;;;;;;;13.67;55.12;101997.91;5073452;28;20048;-71
2021/03/30 02:00:15;;;;;;;24.60;16.00;;;;;;;13.63;55.59;102008.53;5073814;28;20119;-71
2021/03/30 02:02:43;;;;;;;21.80;16.70;;;;;;;13.54;56.07;102003.59;5073607;28;20514;-71
2021/03/30 02:05:11;;;;;;;27.02;16.42;;;;;;;13.52;56.00;102000.16;5071815;28;20123;-72
2021/03/30 02:07:41;;;;;;;18.65;15.32;;;;;;;13.46;56.18;102004.75;5073509;28;20041;-71
2021/03/30 02:10:17;;;;;;;24.67;18.52;;;;;;;13.33;56.50;101999.09;5073565;28;20045;-72
2021/03/30 02:12:45;;;;;;;20.23;17.60;;;;;;;13.41;56.35;101997.03;5066814;28;20071;-72
2021/03/30 02:15:16;;;;;;;30.35;19.65;;;;;;;13.41;55.93;101997.03;5055185;28;20063;-72
2021/03/30 02:18:12;;;;;;;23.33;18.88;;;;;;;13.51;56.15;101993.19;5073507;28;20048;-72
2021/03/30 02:20:40;;;;;;;24.00;17.40;;;;;;;13.44;56.56;101996.94;5071052;28;20047;-71
2021/03/30 02:23:06;;;;;;;20.50;18.33;;;;;;;13.45;56.24;101992.56;5073107;28;20045;-72
2021/03/30 02:25:33;;;;;;;25.90;19.70;;;;;;;13.46;56.18;101992.50;5069214;28;20055;-72
2021/03/30 02:28:05;;;;;;;24.00;18.55;;;;;;;13.45;55.88;101985.56;5057632;28;20055;-72
2021/03/30 02:30:37;;;;;;;20.75;17.58;;;;;;;13.46;56.50;101987.25;5064297;28;20040;-69
2021/03/30 02:33:05;;;;;;;21.30;18.23;;;;;;;13.35;56.92;101987.63;5061470;28;20048;-69
2021/03/30 02:35:32;;;;;;;25.92;19.10;;;;;;;13.34;56.87;101988.53;5061490;28;20041;-69
2021/03/30 02:38:02;;;;;;;21.42;19.13;;;;;;;13.32;56.54;101992.13;5059637;28;20059;-70
2021/03/30 02:40:28;;;;;;;23.35;19.92;;;;;;;13.27;56.93;101996.69;5063705;28;20055;-70
2021/03/30 02:42:57;;;;;;;25.80;22.10;;;;;;;13.03;57.24;101993.06;5061766;28;20076;-70
2021/03/30 02:45:28;;;;;;;23.70;21.00;;;;;;;12.86;58.05;101988.38;5061941;28;20033;-70
2021/03/30 02:48:06;;;;;;;24.95;20.90;;;;;;;13.00;57.33;101994.03;5059214;28;20565;-70
2021/03/30 02:50:33;;;;;;;33.90;22.55;;;;;;;13.06;57.48;101990.34;5061364;28;20056;-72
2021/03/30 02:53:02;;;;;;;27.42;21.75;;;;;;;13.07;57.47;101987.66;5058856;28;20033;-70
2021/03/30 02:55:31;;;;;;;27.50;22.13;;;;;;;13.08;56.91;101986.75;5050852;28;20048;-70
2021/03/30 02:57:57;;;;;;;28.13;22.67;;;;;;;13.05;57.29;101993.88;5064117;28;20044;-69
2021/03/30 03:00:25;;;;;;;30.00;21.67;;;;;;;13.06;57.13;101988.59;5062112;28;20045;-69
2021/03/30 03:02:52;;;;;;;23.45;19.95;;;;;;;13.09;56.72;101988.47;5064321;28;20387;-69
2021/03/30 03:05:19;;;;;;;26.95;20.90;;;;;;;12.98;57.14;101994.97;5063582;28;20102;-70
2021/03/30 03:07:45;;;;;;;24.85;18.98;;;;;;;12.89;57.45;101996.13;5064086;28;20041;-70
2021/03/30 03:10:13;;;;;;;28.90;18.75;;;;;;;12.99;57.18;101989.66;5062450;28;20045;-71
2021/03/30 03:12:43;;;;;;;20.20;18.05;;;;;;;12.93;57.17;101994.25;5060131;28;20036;-71
2021/03/30 03:15:13;;;;;;;24.58;19.05;;;;;;;12.75;57.77;101995.69;5057712;28;20044;-72
2021/03/30 03:17:41;;;;;;;21.00;17.98;;;;;;;12.81;57.44;101990.28;5059340;28;20124;-72
2021/03/30 03:20:09;;;;;;;25.95;16.92;;;;;;;12.79;57.87;101989.47;5058673;28;20056;-71
2021/03/30 03:22:36;;;;;;;21.75;18.38;;;;;;;12.71;57.72;101986.22;5064703;28;20623;-71
2021/03/30 03:25:08;;;;;;;25.92;18.30;;;;;;;12.92;57.57;101976.84;5064185;28;20059;-71
2021/03/30 03:27:35;;;;;;;21.67;15.98;;;;;;;13.04;56.82;101976.44;5044042;28;20055;-72
2021/03/30 03:30:07;;;;;;;21.65;17.08;;;;;;;13.22;56.30;101983.72;5061197;28;20406;-70
2021/03/30 03:32:33;;;;;;;21.27;17.23;;;;;;;13.03;56.64;101990.44;5045142;28;20051;-71
2021/03/30 03:35:00;;;;;;;22.77;16.77;;;;;;;12.76;57.91;101986.94;5063338;28;20037;-72
2021/03/30 03:37:28;;;;;;;22.45;18.52;;;;;;;12.80;57.74;101988.56;5056941;28;20045;-72
2021/03/30 03:39:54;;;;;;;20.90;16.98;;;;;;;12.85;57.33;101984.03;5059744;28;20043;-72
2021/03/30 03:42:21;;;;;;;24.88;17.40;;;;;;;12.73;57.66;101981.78;5059827;28;20541;-72
2021/03/30 03:44:47;;;;;;;23.15;16.88;;;;;;;12.52;58.84;101976.34;5059058;28;20055;-72
2021/03/30 03:47:13;;;;;;;23.58;19.67;;;;;;;12.70;58.21;101985.38;5063023;28;20029;-72
2021/03/30 03:49:40;;;;;;;26.85;19.80;;;;;;;12.89;57.57;101993.50;5059201;28;20049;-72
2021/03/30 03:52:16;;;;;;;25.83;20.02;;;;;;;12.84;57.58;101984.94;5061736;28;20175;-71
2021/03/30 03:54:44;;;;;;;31.00;21.05;;;;;;;12.84;57.49;101987.56;5060966;28;20068;-69
2021/03/30 03:57:20;;;;;;;31.88;20.65;;;;;;;12.83;57.63;101991.06;5060268;28;20079;-69
2021/03/30 03:59:47;;;;;;;27.08;20.40;;;;;;;12.76;57.71;101989.56;5062456;28;20037;-70
2021/03/30 04:02:23;;;;;;;31.08;20.58;;;;;;;12.65;58.21;101983.81;5065874;28;20048;-73
2021/03/30 04:05:03;;;;;;;31.23;21.15;;;;;;;12.72;58.18;101994.03;5063033;28;20408;-73
2021/03/30 04:07:36;;;;;;;30.10;19.90;;;;;;;12.61;58.72;101992.66;5048329;28;20052;-73
2021/03/30 04:10:04;;;;;;;25.48;19.45;;;;;;;12.50;59.31;101992.97;5066174;28;20037;-73
2021/03/30 04:12:34;;;;;;;26.65;19.48;;;;;;;12.59;58.77;101996.16;5066554;28;20033;-73
2021/03/30 04:15:01;;;;;;;28.33;20.60;;;;;;;12.53;58.81;102004.22;5063261;28;20040;-72
2021/03/30 04:17:27;;;;;;;21.98;17.25;;;;;;;12.59;58.50;102006.63;5062702;28;20053;-72
2021/03/30 04:19:54;;;;;;;25.20;19.35;;;;;;;12.52;57.83;102004.25;5067092;28;20473;-73
2021/03/30 04:22:20;;;;;;;22.70;17.10;;;;;;;12.25;59.00;102003.28;5050351;28;20045;-72
2021/03/30 04:24:46;;;;;;;25.70;19.23;;;;;;;12.23;59.13;102007.72;5064611;28;20041;-73
2021/03/30 04:27:14;;;;;;;24.33;18.88;;;;;;;12.17;59.33;102013.13;5066362;28;20759;-73
2021/03/30 04:29:43;;;;;;;24.70;20.50;;;;;;;12.09;59.53;102008.13;5059837;28;20037;-72
2021/03/30 04:32:10;;;;;;;26.67;18.85;;;;;;;12.04;59.73;102007.41;5060346;28;20402;-71
2021/03/30 04:34:36;;;;;;;28.63;20.77;;;;;;;12.10;59.39;102006.38;5066128;28;20052;-72
2021/03/30 04:37:04;;;;;;;29.58;20.48;;;;;;;12.04;59.51;102008.25;5067320;28;20045;-72
2021/03/30 04:39:30;;;;;;;28.95;21.95;;;;;;;12.01;60.13;102002.25;5066661;28;20693;-72
2021/03/30 04:41:57;;;;;;;25.83;20.00;;;;;;;11.96;60.31;102004.97;5056927;28;20040;-72
2021/03/30 04:44:23;;;;;;;26.15;21.33;;;;;;;12.05;59.89;102002.13;5072935;28;20079;-71
2021/03/30 04:46:50;;;;;;;29.35;20.73;;;;;;;11.96;60.00;102001.50;5054427;28;20040;-72
2021/03/30 04:49:16;;;;;;;24.23;20.27;;;;;;;12.01;59.90;102002.25;5066625;28;20047;-71
2021/03/30 04:51:42;;;;;;;26.73;20.05;;;;;;;12.13;59.90;101998.41;5075090;28;20048;-73
2021/03/30 04:54:09;;;;;;;23.48;19.58;;;;;;;12.12;59.51;102001.94;5074506;28;20048;-72
2021/03/30 04:56:36;;;;;;;30.88;22.00;;;;;;;12.12;59.67;102005.41;5075330;28;20479;-72
2021/03/30 04:59:04;;;;;;;25.23;18.63;;;;;;;12.09;59.46;102009.84;5075095;28;20044;-72
2021/03/30 05:01:30;;;;;;;25.70;18.98;;;;;;;12.08;59.80;102009.00;5073844;28;20372;-69
2021/03/30 05:03:57;;;;;;;28.20;21.98;;;;;;;11.84;60.80;102017.53;5072783;28;20123;-69
2021/03/30 05:06:23;;;;;;;31.30;23.45;;;;;;;11.92;60.29;102012.94;5074102;28;20071;-69
2021/03/30 05:08:49;;;;;;;25.20;22.05;;;;;;;12.02;60.27;102014.41;5074879;28;20076;-71
2021/03/30 05:11:16;;;;;;;29.30;22.67;;;;;;;11.97;59.86;102017.16;5074500;28;20525;-71
2021/03/30 05:13:42;;;;;;;31.27;23.50;;;;;;;11.96;59.59;102010.22;5074613;28;20095;-72
2021/03/30 05:16:09;;;;;;;26.10;20.85;;;;;;;12.11;59.18;102016.78;5056575;28;20044;-68
2021/03/30 05:18:38;;;;;;;22.65;19.73;;;;;;;12.16;59.28;102011.41;5067703;28;20123;-69
2021/03/30 05:21:08;;;;;;;29.90;21.75;;;;;;;12.02;59.90;102020.50;5053256;28;20399;-68
2021/03/30 05:23:34;;;;;;;28.42;20.65;;;;;;;12.11;59.78;102010.69;5072897;28;20037;-69
2021/03/30 05:26:04;;;;;;;27.60;19.48;;;;;;;12.18;59.43;102015.69;5074261;28;20056;-69
2021/03/30 05:28:30;;;;;;;28.20;19.55;;;;;;;12.20;59.81;102024.38;5073317;28;20044;-75
2021/03/30 05:30:57;;;;;;;26.92;21.23;;;;;;;12.47;58.76;102021.84;5073571;28;20044;-76
2021/03/30 05:33:23;;;;;;;33.47;21.25;;;;;;;12.61;58.41;102021.41;5072782;28;20044;-77
2021/03/30 05:35:49;;;;;;;22.70;19.67;;;;;;;12.66;58.43;102027.38;5074504;28;20048;-78
2021/03/30 05:38:16;;;;;;;27.10;21.42;;;;;;;12.78;58.31;102016.53;5073193;28;20040;-77
2021/03/30 05:40:42;;;;;;;24.58;20.13;;;;;;;13.03;57.72;102029.69;5074101;28;20048;-75
2021/03/30 05:43:10;;;;;;;27.70;20.50;;;;;;;13.54;56.10;102034.19;5073888;28;20121;-79
2021/03/30 05:45:37;;;;;;;28.38;20.33;;;;;;;13.63;55.42;102032.13;5074022;28;20127;-84
2021/03/30 05:48:08;;;;;;;29.10;21.38;;;;;;;13.76;55.66;102044.78;5073246;28;20037;-85
2021/03/30 05:50:35;;;;;;;25.45;20.08;;;;;;;14.05;54.72;102036.72;5073408;28;20052;-83
2021/03/30 05:53:07;;;;;;;23.92;19.75;;;;;;;14.33;53.83;102044.47;5074832;28;20036;-81
2021/03/30 05:55:40;;;;;;;29.65;20.90;;;;;;;14.34;53.98;102037.44;5075070;28;20040;-80
2021/03/30 05:58:07;;;;;;;28.25;22.48;;;;;;;14.73;52.62;102034.25;5074276;28;20490;-81
2021/03/30 06:00:38;;;;;;;30.90;22.83;;;;;;;14.87;51.82;102031.94;5073534;28;20045;-81
2021/03/30 06:03:08;;;;;;;30.13;23.63;;;;;;;15.09;51.15;102038.03;5073868;28;20068;-75
2021/03/30 06:05:36;;;;;;;33.38;22.27;;;;;;;15.03;51.55;102043.53;5073536;28;20051;-82
2021/03/30 06:08:05;;;;;;;31.02;23.58;;;;;;;15.15;51.04;102044.81;5061172;28;20498;-83
2021/03/30 06:10:33;;;;;;;27.75;23.10;;;;;;;15.35;50.80;102054.53;5062447;28;20044;-75
2021/03/30 06:13:01;;;;;;;27.23;22.50;;;;;;;15.63;49.99;102049.84;5059380;28;20037;-79
2021/03/30 06:15:30;;;;;;;30.45;23.38;;;;;;;16.01;49.23;102057.84;5063109;28;20456;-75
2021/03/30 06:17:59;;;;;;;28.95;23.08;;;;;;;16.13;48.77;102053.81;5062929;28;20037;-78
2021/03/30 06:20:36;;;;;;;47.03;26.52;;;;;;;16.45;47.79;102055.84;5044266;28;20126;-78
2021/03/30 06:23:07;;;;;;;36.28;24.52;;;;;;;16.71;47.25;102057.28;5073126;28;20490;-80
2021/03/30 06:25:45;;;;;;;34.50;27.60;;;;;;;17.23;45.94;102057.44;5073611;28;20037;-79
2021/03/30 06:28:15;;;;;;;36.83;26.50;;;;;;;17.40;45.88;102058.38;5073704;28;20127;-79
2021/03/30 06:31:00;;;;;;;34.42;27.98;;;;;;;17.64;45.13;102061.59;5064675;28;20036;-82
2021/03/30 06:33:28;;;;;;;38.83;29.13;;;;;;;17.95;44.22;102061.75;5063216;28;20037;-81
2021/03/30 06:36:13;;;;;;;40.40;30.05;;;;;;;18.13;44.00;102059.91;5062778;28;20040;-80
2021/03/30 06:39:07;;;;;;;38.58;28.27;;;;;;;18.35;42.94;102053.50;5055495;28;20045;-75
2021/03/30 06:41:42;;;;;;;41.75;29.05;;;;;;;18.62;43.22;102059.91;5055862;28;20072;-76
2021/03/30 06:46:53;;;;;;;35.45;27.38;;;;;;;18.35;43.52;102061.41;5059372;28;20378;-76
2021/03/30 06:49:21;;;;;;;35.10;27.73;;;;;;;19.38;42.08;102055.56;5061005;28;20127;-75
2021/03/30 06:51:48;;;;;;;35.72;31.27;;;;;;;19.91;40.81;102061.31;5044495;28;20048;-75
2021/03/30 06:54:15;;;;;;;46.08;29.50;;;;;;;19.97;40.50;102050.34;5059342;28;20484;-76
2021/03/30 06:56:59;;;;;;;40.42;31.20;;;;;;;18.93;43.19;102052.94;5040580;28;20041;-75
2021/03/30 06:59:26;;;;;;;39.60;30.80;;;;;;;19.29;41.63;102058.78;5060337;28;20048;-76
2021/03/30 07:01:55;;;;;;;33.08;29.77;;;;;;;18.48;44.13;102063.31;5060771;28;20114;-75
2021/03/30 07:04:22;;;;;;;33.38;29.52;;;;;;;18.24;44.32;102064.63;5065681;28;20394;-75
2021/03/30 07:06:53;;;;;;;32.08;28.70;;;;;;;19.41;42.45;102064.28;5070146;28;20036;-75
2021/03/30 07:09:23;;;;;;;33.63;27.42;;;;;;;19.30;43.40;102057.84;5067722;28;20037;-75
2021/03/30 07:11:50;;;;;;;40.03;29.75;;;;;;;19.97;41.78;102062.72;5071359;28;20478;-77
2021/03/30 07:14:21;;;;;;;32.47;27.80;;;;;;;20.22;41.25;102062.94;5055777;28;20089;-78
2021/03/30 07:16:56;;;;;;;34.15;29.73;;;;;;;20.56;40.11;102066.16;5071461;28;20045;-79
2021/03/30 07:19:28;;;;;;;35.22;31.67;;;;;;;20.85;39.45;102066.97;5068511;28;20768;-75
2021/03/30 07:22:09;;;;;;;32.00;27.58;;;;;;;21.77;37.77;102069.69;5068398;28;20048;-79
2021/03/30 07:24:49;;;;;;;37.40;29.15;;;;;;;21.92;37.25;102063.31;5071004;28;20064;-75
2021/03/30 07:27:27;;;;;;;35.50;27.98;;;;;;;22.33;36.47;102067.59;5070641;28;20047;-77
2021/03/30 07:29:56;;;;;;;38.22;28.60;;;;;;;22.56;36.63;102065.09;5063232;28;20033;-75
2021/03/30 07:32:26;;;;;;;38.30;31.00;;;;;;;22.42;37.37;102061.59;5066648;28;20126;-76
2021/03/30 07:35:03;;;;;;;31.75;28.27;;;;;;;22.63;35.81;102067.19;5070438;28;20048;-76
2021/03/30 07:37:36;;;;;;;35.70;31.05;;;;;;;22.85;36.18;102063.84;5071304;28;20044;-80
2021/03/30 07:40:06;;;;;;;41.47;33.75;;;;;;;23.25;35.19;102060.91;5071021;28;20041;-77
2021/03/30 07:42:34;;;;;;;43.42;33.88;;;;;;;23.38;34.80;102064.31;5071670;28;20052;-75
2021/03/30 07:45:03;;;;;;;42.13;36.30;;;;;;;23.20;35.51;102060.41;5068853;28;20456;-77
2021/03/30 07:47:30;;;;;;;46.95;39.13;;;;;;;23.12;35.39;102066.31;5071012;28;20048;-67
2021/03/30 07:49:56;;;;;;;47.67;36.90;;;;;;;23.92;34.37;102062.94;5056148;28;20506;-74
2021/03/30 07:52:35;;;;;;;40.80;33.72;;;;;;;24.39;33.89;102061.88;5074771;28;20118;-69
2021/03/30 07:55:25;;;;;;;38.72;34.67;;;;;;;25.09;32.26;102050.00;5048508;28;20056;-72
2021/03/30 07:58:10;;;;;;;40.13;35.55;;;;;;;24.57;33.06;102051.56;5073795;28;20124;-69
2021/03/30 08:00:54;;;;;;;38.28;33.58;;;;;;;25.42;31.66;102056.16;5069648;28;20127;-71
2021/03/30 08:03:34;;;;;;;46.50;35.47;;;;;;;25.24;32.02;102054.03;5069718;28;20139;-74
2021/03/30 08:06:37;;;;;;;38.75;34.05;;;;;;;25.58;31.24;102051.19;5066716;28;20060;-74
2021/03/30 08:10:21;;;;;;;36.67;32.53;;;;;;;26.27;30.15;102058.63;5071786;28;20524;-74
2021/03/30 08:12:47;;;;;;;35.05;31.48;;;;;;;26.62;29.47;102052.81;5073633;28;20109;-72
2021/03/30 08:15:44;;;;;;;38.33;32.70;;;;;;;26.11;30.36;102059.13;5074231;28;20124;-71
2021/03/30 08:18:11;;;;;;;34.83;31.35;;;;;;;26.71;30.20;102051.16;5067643;28;20045;-73
2021/03/30 08:20:58;;;;;;;34.75;30.35;;;;;;;26.19;30.47;102061.94;5074323;28;20061;-74
2021/03/30 08:23:26;;;;;;;31.90;28.45;;;;;;;25.90;31.04;102063.66;5072064;28;20056;-72
2021/03/30 08:26:31;;;;;;;34.13;30.27;;;;;;;25.10;31.63;102058.84;5056692;28;20062;-74
2021/03/30 08:29:02;;;;;;;33.67;28.98;;;;;;;25.10;32.69;102056.19;5072294;28;20058;-73
2021/03/30 08:31:35;;;;;;;36.13;29.77;;;;;;;26.05;31.69;102060.50;5073294;28;20132;-71
2021/03/30 08:34:06;;;;;;;29.02;25.90;;;;;;;25.41;31.41;102060.66;5073876;28;20040;-70
2021/03/30 08:36:47;;;;;;;30.23;26.80;;;;;;;26.03;30.27;102056.25;5073557;28;20040;-68
2021/03/30 08:39:20;;;;;;;31.90;28.10;;;;;;;25.93;31.22;102061.53;5072539;28;20040;-70
2021/03/30 08:41:47;;;;;;;34.80;24.85;;;;;;;26.45;30.10;102048.16;5072768;28;20075;-71
2021/03/30 08:44:19;;;;;;;26.45;23.30;;;;;;;26.52;29.66;102054.63;5069392;28;20092;-68
2021/03/30 08:46:49;;;;;;;25.00;22.17;;;;;;;25.21;31.42;102058.81;5063092;28;20036;-70
2021/03/30 08:49:32;;;;;;;30.13;24.77;;;;;;;25.08;32.09;102057.13;5057524;28;20048;-69
2021/03/30 08:52:02;;;;;;;24.48;21.98;;;;;;;26.83;29.52;102047.38;5056530;28;20059;-69
2021/03/30 08:54:32;;;;;;;27.95;18.77;;;;;;;27.08;28.52;102049.53;5065580;28;20044;-72
2021/03/30 08:57:03;;;;;;;24.73;17.45;;;;;;;27.01;29.35;102047.53;5068287;28;20169;-71
2021/03/30 08:59:31;;;;;;;31.67;21.67;;;;;;;26.25;29.58;102060.56;5072360;28;20464;-74
2021/03/30 09:02:01;;;;;;;24.85;20.98;;;;;;;26.33;29.66;102050.91;5069467;28;20597;-68
2021/03/30 09:04:35;;;;;;;28.77;22.25;;;;;;;25.08;31.39;102049.13;5068960;28;20520;-66
2021/03/30 09:07:02;;;;;;;28.92;20.63;;;;;;;25.89;30.60;102053.91;5059595;28;20573;-70
2021/03/30 09:09:36;;;;;;;29.88;19.90;;;;;;;25.69;30.46;102058.31;5062660;28;20090;-70
2021/03/30 09:12:18;;;;;;;25.75;20.25;;;;;;;25.79;30.07;102044.06;5065847;28;20055;-71
2021/03/30 09:15:01;;;;;;;22.75;20.23;;;;;;;25.68;30.18;102052.13;5062891;28;20090;-71
2021/03/30 09:17:28;;;;;;;27.15;20.08;;;;;;;24.93;31.04;102045.06;5063373;28;20033;-72
2021/03/30 09:20:17;;;;;;;28.67;21.15;;;;;;;24.98;31.86;102053.53;5059483;28;20399;-70
2021/03/30 09:22:52;;;;;;;25.77;22.45;;;;;;;24.92;32.30;102040.66;5061187;28;20048;-70
2021/03/30 09:27:46;;;;;;;32.83;22.15;;;;;;;24.09;33.89;102048.28;5059868;28;20415;-71
2021/03/30 09:30:23;;;;;;;23.10;20.55;;;;;;;24.05;33.87;102037.03;5065808;28;20048;-72
2021/03/30 09:33:02;;;;;;;30.38;22.67;;;;;;;23.47;35.46;102041.50;5069284;28;20136;-73
2021/03/30 09:35:31;;;;;;;25.85;22.38;;;;;;;23.32;35.47;102034.69;5065386;28;20032;-69
2021/03/30 09:38:03;;;;;;;27.13;21.30;;;;;;;23.15;35.57;102041.28;5065381;28;20855;-71
2021/03/30 09:40:32;;;;;;;31.48;25.08;;;;;;;23.05;36.10;102041.09;5061866;28;20503;-72
2021/03/30 09:43:00;;;;;;;23.30;20.90;;;;;;;22.69;37.56;102026.00;5060994;28;20427;-70
2021/03/30 09:45:31;;;;;;;32.38;22.38;;;;;;;22.47;37.46;102038.19;5060926;28;20132;-71
2021/03/30 09:48:02;;;;;;;36.60;23.33;;;;;;;22.46;37.13;102039.16;5063545;28;20063;-71
2021/03/30 09:50:29;;;;;;;23.92;21.50;;;;;;;22.53;36.91;102030.75;5069105;28;20109;-70
2021/03/30 09:53:07;;;;;;;26.52;21.38;;;;;;;22.55;37.12;102031.50;5064201;28;20067;-72
2021/03/30 09:55:47;;;;;;;35.05;23.13;;;;;;;22.47;37.30;102030.22;5064357;28;20108;-72
2021/03/30 09:58:19;;;;;;;27.63;20.55;;;;;;;22.47;37.70;102024.06;5043080;28;20072;-72
2021/03/30 10:00:50;;;;;;;30.52;22.15;;;;;;;22.03;37.38;102036.03;5061722;28;20376;-69
2021/03/30 10:03:17;;;;;;;34.92;23.63;;;;;;;21.88;38.11;102027.31;5066737;28;20040;-72
2021/03/30 10:05:44;;;;;;;26.58;21.70;;;;;;;22.15;38.08;102026.38;5072251;28;20044;-69
2021/03/30 10:08:24;;;;;;;27.65;22.10;;;;;;;22.12;37.82;102029.25;5072685;28;20044;-73
2021/03/30 10:11:03;;;;;;;24.17;21.20;;;;;;;21.75;38.63;102025.63;5070624;28;20094;-72
2021/03/30 10:13:55;;;;;;;25.17;22.17;;;;;;;21.89;38.48;102020.19;5071080;28;20064;-72
2021/03/30 10:16:25;;;;;;;27.83;22.08;;;;;;;21.67;38.39;102024.31;5070862;28;20557;-72
2021/03/30 10:18:51;;;;;;;22.20;19.80;;;;;;;21.81;38.61;102019.88;5071430;28;20064;-75
2021/03/30 10:21:19;;;;;;;29.05;22.27;;;;;;;21.95;38.85;102014.47;5066035;28;20112;-76
2021/03/30 10:23:48;;;;;;;30.20;20.38;;;;;;;21.73;38.82;102012.44;5066393;28;20375;-71
2021/03/30 10:26:26;;;;;;;26.35;18.55;;;;;;;21.51;38.54;102009.56;5076318;28;20505;-72
2021/03/30 10:28:57;;;;;;;30.23;19.20;;;;;;;21.59;38.45;102007.25;5071093;28;20090;-72
2021/03/30 10:31:33;;;;;;;27.88;18.40;;;;;;;21.66;38.04;102006.72;5067640;28;20067;-71
2021/03/30 10:34:00;;;;;;;21.98;17.02;;;;;;;21.53;38.26;101994.41;5068062;28;20089;-71
2021/03/30 10:36:27;;;;;;;24.70;16.45;;;;;;;21.78;37.59;101997.03;5072461;28;20044;-74
2021/03/30 10:39:07;;;;;;;26.27;19.17;;;;;;;21.80;37.81;101997.81;5070741;28;20036;-73
2021/03/30 10:41:38;;;;;;;24.15;17.65;;;;;;;21.73;37.95;101995.66;5071567;28;20044;-70
2021/03/30 10:44:07;;;;;;;23.80;18.05;;;;;;;21.81;37.65;101988.88;5071537;28;20136;-72
2021/03/30 10:46:46;;;;;;;28.88;19.65;;;;;;;21.73;38.33;101982.41;5066161;28;20052;-72
2021/03/30 10:49:15;;;;;;;22.08;18.40;;;;;;;21.58;38.60;101987.00;5069719;28;20497;-72
2021/03/30 10:51:45;;;;;;;21.40;16.73;;;;;;;21.73;37.62;101974.44;5072437;28;20040;-71
2021/03/30 10:54:15;;;;;;;24.80;19.08;;;;;;;21.45;38.09;101976.34;5071127;28;20505;-71
2021/03/30 10:56:43;;;;;;;24.65;17.17;;;;;;;21.47;38.76;101976.25;5072264;28;20060;-71
2021/03/30 10:59:11;;;;;;;27.50;17.83;;;;;;;21.26;37.99;101970.59;5071461;28;20413;-72
2021/03/30 11:01:38;;;;;;;25.63;16.35;;;;;;;21.48;37.99;101968.19;5071028;28;20068;-72
2021/03/30 11:04:07;;;;;;;25.60;17.38;;;;;;;21.42;37.29;101964.16;5071969;28;20148;-72
2021/03/30 11:06:34;;;;;;;23.75;17.95;;;;;;;21.44;37.56;101962.22;5072349;28;20048;-72
2021/03/30 11:09:02;;;;;;;21.15;16.70;;;;;;;21.35;37.26;101965.50;5070922;28;20471;-72
2021/03/30 11:11:31;;;;;;;19.95;17.85;;;;;;;21.50;37.06;101957.47;5070896;28;20562;-72
2021/03/30 11:14:00;;;;;;;24.67;17.05;;;;;;;21.51;37.44;101957.34;5071679;28;20036;-71
2021/03/30 11:16:28;;;;;;;28.02;18.02;;;;;;;21.51;37.19;101954.69;5070802;28;21032;-73
2021/03/30 11:18:56;;;;;;;21.38;18.42;;;;;;;21.50;36.69;101946.84;5067266;28;20040;-71
2021/03/30 11:21:23;;;;;;;26.55;18.75;;;;;;;21.47;36.95;101950.56;5071551;28;20072;-72
2021/03/30 11:23:58;;;;;;;27.48;18.25;;;;;;;21.57;36.67;101948.13;5071284;28;20102;-72
2021/03/30 11:26:25;;;;;;;22.88;18.13;;;;;;;21.37;36.58;101946.84;5071055;28;20072;-71
2021/03/30 11:28:54;;;;;;;23.75;18.92;;;;;;;21.52;36.14;101942.28;5070831;28;20060;-72
2021/03/30 11:34:08;;;;;;;26.45;17.10;;;;;;;21.54;35.55;101935.06;5070851;28;20079;-71
2021/03/30 11:36:39;;;;;;;26.17;17.60;;;;;;;21.57;36.69;101929.53;5071115;28;20101;-70